createdAt,value
2018-04-11T00:01:00.719Z,75.43
2018-04-11T00:02:09.547Z,75.72
2018-04-11T00:03:18.379Z,75.34
2018-04-11T00:04:27.214Z,75.43
2018-04-11T00:05:36.047Z,75.53
2018-04-11T00:06:44.982Z,75.62
2018-04-11T00:07:54.092Z,75.24
2018-04-11T00:09:02.924Z,74.58
2018-04-11T00:10:11.755Z,74.77
2018-04-11T00:11:20.589Z,74.39
2018-04-11T00:12:29.421Z,74.67
2018-04-11T00:13:38.253Z,74.77
2018-04-11T00:14:47.362Z,74.77
2018-04-11T00:15:56.473Z,74.29
2018-04-11T00:17:05.308Z,74.77
2018-04-11T00:18:14.416Z,74.96
2018-04-11T00:19:23.251Z,74.87
2018-04-11T00:20:32.358Z,74.87
2018-04-11T00:21:41.188Z,74.48
2018-04-11T00:22:50.296Z,74.67
2018-04-11T00:23:59.183Z,74.58
2018-04-11T00:25:08.019Z,74.48
2018-04-11T00:26:16.852Z,74.48
2018-04-11T00:27:25.721Z,74.67
2018-04-11T00:28:34.791Z,74.48
2018-04-11T00:29:43.727Z,74.96
2018-04-11T00:30:52.556Z,74.29
2018-04-11T00:32:01.674Z,74.35
2018-04-11T00:33:11.055Z,74.26
2018-04-11T00:34:19.889Z,73.91
2018-04-11T00:35:28.782Z,74.26
2018-04-11T00:36:37.877Z,74.2
2018-04-11T00:37:46.713Z,73.82
2018-04-11T00:38:55.539Z,73.3
2018-04-11T00:40:04.368Z,73.34
2018-04-11T00:41:13.197Z,73.72
2018-04-11T00:42:22.029Z,73.4
2018-04-11T00:43:30.859Z,73.34
2018-04-11T00:44:39.968Z,73.4
2018-04-11T00:45:48.797Z,73.21
2018-04-11T00:46:57.779Z,72.39
2018-04-11T00:48:06.611Z,72.67
2018-04-11T00:49:15.721Z,73.49
2018-04-11T00:50:24.823Z,73.02
2018-04-11T00:51:33.651Z,73.3
2018-04-11T00:52:42.534Z,73.4
2018-04-11T00:53:51.641Z,73.11
2018-04-11T00:55:00.751Z,72.92
2018-04-11T00:56:09.588Z,72.74
2018-04-11T00:57:18.410Z,72.26
2018-04-11T00:58:27.668Z,72.83
2018-04-11T00:59:36.504Z,72.92
2018-04-11T01:00:45.334Z,72.35
2018-04-11T01:01:54.441Z,72.2
2018-04-11T01:03:03.275Z,72.49
2018-04-11T01:04:12.110Z,72.26
2018-04-11T01:05:21.217Z,72.55
2018-04-11T01:06:30.049Z,72.92
2018-04-11T01:07:38.879Z,72.83
2018-04-11T01:08:47.711Z,72.55
2018-04-11T01:09:56.691Z,72.55
2018-04-11T01:11:05.801Z,72.55
2018-04-11T01:12:14.632Z,72.26
2018-04-11T01:13:24.014Z,72.64
2018-04-11T01:14:33.118Z,72.26
2018-04-11T01:15:41.952Z,72.55
2018-04-11T01:16:50.785Z,72.26
2018-04-11T01:17:59.624Z,72.26
2018-04-11T01:19:08.455Z,72.35
2018-04-11T01:20:17.287Z,72.35
2018-04-11T01:21:26.220Z,72.26
2018-04-11T01:22:35.332Z,71.69
2018-04-11T01:23:44.161Z,71.69
2018-04-11T01:24:53.264Z,71.88
2018-04-11T01:26:02.371Z,71.88
2018-04-11T01:27:11.206Z,72.16
2018-04-11T01:28:20.049Z,72.55
2018-04-11T01:29:29.161Z,72.07
2018-04-11T01:30:37.994Z,71.78
2018-04-11T01:31:47.118Z,71.88
2018-04-11T01:32:55.948Z,71.88
2018-04-11T01:34:05.055Z,71.78
2018-04-11T01:35:14.161Z,71.02
2018-04-11T01:36:23.267Z,71.5
2018-04-11T01:37:32.097Z,71.97
2018-04-11T01:38:40.978Z,72.64
2018-04-11T01:39:49.819Z,72.35
2018-04-11T01:40:58.640Z,72.45
2018-04-11T01:42:07.751Z,72.16
2018-04-11T01:43:16.584Z,71.78
2018-04-11T01:44:25.746Z,71.88
2018-04-11T01:45:34.576Z,71.59
2018-04-11T01:46:43.413Z,72.07
2018-04-11T01:47:52.521Z,71.88
2018-04-11T01:49:01.625Z,71.88
2018-04-11T01:50:10.838Z,71.88
2018-04-11T01:51:19.664Z,71.97
2018-04-11T01:52:28.497Z,71.59
2018-04-11T01:53:37.621Z,71.31
2018-04-11T01:54:46.456Z,71.22
2018-04-11T01:55:55.861Z,71.31
2018-04-11T01:57:04.694Z,71.12
2018-04-11T01:58:13.525Z,70.83
2018-04-11T01:59:22.354Z,71.41
2018-04-11T02:00:31.183Z,71.22
2018-04-11T02:01:40.493Z,71.22
2018-04-11T02:02:49.324Z,71.12
2018-04-11T02:03:58.159Z,71.41
2018-04-11T02:05:06.998Z,71.41
2018-04-11T02:06:15.827Z,71.02
2018-04-11T02:07:24.758Z,70.45
2018-04-11T02:08:33.591Z,70.93
2018-04-11T02:09:42.999Z,71.12
2018-04-11T02:10:52.163Z,71.22
2018-04-11T02:12:00.995Z,71.22
2018-04-11T02:13:09.977Z,70.93
2018-04-11T02:14:18.805Z,71.12
2018-04-11T02:15:27.673Z,70.93
2018-04-11T02:16:36.462Z,71.31
2018-04-11T02:17:45.293Z,71.31
2018-04-11T02:18:54.175Z,70.64
2018-04-11T02:20:03.004Z,70.74
2018-04-11T02:21:11.834Z,70.54
2018-04-11T02:22:20.943Z,70.64
2018-04-11T02:23:29.772Z,71.12
2018-04-11T02:24:38.603Z,71.27
2018-04-11T02:25:47.714Z,70.99
2018-04-11T02:26:56.822Z,71.31
2018-04-11T02:28:05.653Z,71.37
2018-04-11T02:29:14.486Z,71.46
2018-04-11T02:30:23.899Z,71.37
2018-04-11T02:31:32.731Z,71.08
2018-04-11T02:32:41.847Z,71.18
2018-04-11T02:33:51.248Z,71.56
2018-04-11T02:35:00.079Z,71.37
2018-04-11T02:36:09.013Z,71.27
2018-04-11T02:37:18.398Z,71.46
2018-04-11T02:38:27.507Z,70.89
2018-04-11T02:39:36.610Z,70.99
2018-04-11T02:40:45.724Z,71.18
2018-04-11T02:41:55.138Z,70.79
2018-04-11T02:43:03.970Z,70.61
2018-04-11T02:44:12.803Z,70.89
2018-04-11T02:45:22.200Z,70.42
2018-04-11T02:46:31.031Z,70.42
2018-04-11T02:47:39.865Z,70.32
2018-04-11T02:48:48.695Z,70.7
2018-04-11T02:49:58.079Z,70.7
2018-04-11T02:51:07.192Z,70.32
2018-04-11T02:52:16.022Z,70.89
2018-04-11T02:53:25.051Z,70.7
2018-04-11T02:54:33.890Z,70.13
2018-04-11T02:55:42.993Z,70.61
2018-04-11T02:56:51.825Z,69.94
2018-04-11T02:58:00.935Z,70.23
2018-04-11T02:59:10.088Z,70.23
2018-04-11T03:00:19.198Z,70.42
2018-04-11T03:01:28.581Z,70.42
2018-04-11T03:02:37.977Z,70.23
2018-04-11T03:03:47.085Z,70.51
2018-04-11T03:04:56.341Z,70.42
2018-04-11T03:06:05.171Z,70.13
2018-04-11T03:07:14.031Z,70.04
2018-04-11T03:08:23.154Z,69.94
2018-04-11T03:09:31.993Z,69.85
2018-04-11T03:10:40.888Z,70.32
2018-04-11T03:11:49.711Z,70.04
2018-04-11T03:12:58.536Z,70.42
2018-04-11T03:14:07.367Z,70.42
2018-04-11T03:15:16.200Z,70.23
2018-04-11T03:16:25.130Z,70.32
2018-04-11T03:17:34.234Z,70.23
2018-04-11T03:18:43.063Z,70.42
2018-04-11T03:19:52.170Z,70.23
2018-04-11T03:21:01.554Z,70.13
2018-04-11T03:22:10.495Z,70.04
2018-04-11T03:23:19.316Z,70.42
2018-04-11T03:24:28.145Z,69.85
2018-04-11T03:25:36.981Z,70.7
2018-04-11T03:26:46.098Z,70.04
2018-04-11T03:27:54.984Z,70.51
2018-04-11T03:29:03.816Z,70.04
2018-04-11T03:30:12.648Z,70.61
2018-04-11T03:31:22.037Z,70.42
2018-04-11T03:32:31.431Z,70.04
2018-04-11T03:33:40.611Z,70.61
2018-04-11T03:34:49.442Z,70.13
2018-04-11T03:35:58.549Z,70.04
2018-04-11T03:37:07.666Z,70.23
2018-04-11T03:38:16.497Z,70.04
2018-04-11T03:39:25.759Z,69.94
2018-04-11T03:40:35.144Z,70.23
2018-04-11T03:41:44.258Z,70.32
2018-04-11T03:42:53.360Z,70.23
2018-04-11T03:44:02.190Z,70.13
2018-04-11T03:45:11.021Z,70.13
2018-04-11T03:46:19.852Z,70.04
2018-04-11T03:47:28.684Z,70.32
2018-04-11T03:48:37.516Z,69.94
2018-04-11T03:49:46.347Z,70.04
2018-04-11T03:50:55.233Z,69.94
2018-04-11T03:52:04.345Z,69.85
2018-04-11T03:53:13.176Z,69.56
2018-04-11T03:54:22.006Z,69.46
2018-04-11T03:55:31.384Z,69.75
2018-04-11T03:56:40.823Z,69.46
2018-04-11T03:57:49.654Z,69.46
2018-04-11T03:58:58.485Z,69.09
2018-04-11T04:00:07.317Z,68.9
2018-04-11T04:01:16.154Z,69.27
2018-04-11T04:02:25.312Z,69.46
2018-04-11T04:03:34.702Z,69.09
2018-04-11T04:04:44.082Z,68.99
2018-04-11T04:05:52.913Z,68.9
2018-04-11T04:07:01.748Z,68.9
2018-04-11T04:08:10.909Z,69.18
2018-04-11T04:09:20.012Z,68.8
2018-04-11T04:10:28.845Z,68.71
2018-04-11T04:11:37.672Z,68.8
2018-04-11T04:12:46.506Z,68.71
2018-04-11T04:13:55.641Z,68.33
2018-04-11T04:15:04.753Z,68.52
2018-04-11T04:16:13.860Z,67.85
2018-04-11T04:17:23.245Z,67.94
2018-04-11T04:18:32.078Z,67.57
2018-04-11T04:19:41.208Z,68.23
2018-04-11T04:20:50.355Z,67.57
2018-04-11T04:21:59.184Z,68.04
2018-04-11T04:23:08.015Z,68.13
2018-04-11T04:24:16.849Z,68.23
2018-04-11T04:25:26.057Z,68.04
2018-04-11T04:26:34.889Z,68.04
2018-04-11T04:27:43.996Z,67.85
2018-04-11T04:28:52.825Z,67.47
2018-04-11T04:30:01.657Z,67.47
2018-04-11T04:31:10.693Z,67.41
2018-04-11T04:32:19.805Z,67.66
2018-04-11T04:33:28.909Z,67.57
2018-04-11T04:34:37.749Z,67.66
2018-04-11T04:35:46.849Z,67.41
2018-04-11T04:36:56.107Z,67.03
2018-04-11T04:38:05.210Z,67.22
2018-04-11T04:39:14.043Z,67.13
2018-04-11T04:40:23.149Z,67.32
2018-04-11T04:41:32.528Z,67.32
2018-04-11T04:42:41.838Z,67.32
2018-04-11T04:43:50.675Z,66.94
2018-04-11T04:44:59.504Z,67.5
2018-04-11T04:46:08.340Z,67.5
2018-04-11T04:47:17.171Z,67.32
2018-04-11T04:48:26.154Z,67.32
2018-04-11T04:49:34.987Z,67.5
2018-04-11T04:50:43.816Z,67.32
2018-04-11T04:51:52.651Z,67.69
2018-04-11T04:53:01.482Z,67.41
2018-04-11T04:54:10.466Z,67.41
2018-04-11T04:55:19.298Z,67.6
2018-04-11T04:56:28.129Z,67.5
2018-04-11T04:57:36.962Z,66.84
2018-04-11T04:58:46.092Z,67.03
2018-04-11T04:59:54.900Z,66.74
2018-04-11T05:01:03.734Z,66.74
2018-04-11T05:02:12.571Z,66.94
2018-04-11T05:03:21.399Z,67.03
2018-04-11T05:04:30.512Z,67.03
2018-04-11T05:05:39.338Z,66.74
2018-04-11T05:06:48.172Z,66.74
2018-04-11T05:07:57.059Z,66.46
2018-04-11T05:09:06.178Z,66.46
2018-04-11T05:10:15.007Z,66.74
2018-04-11T05:11:24.131Z,66.36
2018-04-11T05:12:32.968Z,66.36
2018-04-11T05:13:41.796Z,66.17
2018-04-11T05:14:50.908Z,66.55
2018-04-11T05:15:59.740Z,66.46
2018-04-11T05:17:08.852Z,66.55
2018-04-11T05:18:17.684Z,66.17
2018-04-11T05:19:26.511Z,66.36
2018-04-11T05:20:35.346Z,66.17
2018-04-11T05:21:44.494Z,66.08
2018-04-11T05:22:53.287Z,66.46
2018-04-11T05:24:02.114Z,66.27
2018-04-11T05:25:10.947Z,66.27
2018-04-11T05:26:19.780Z,66.55
2018-04-11T05:27:28.609Z,66.55
2018-04-11T05:28:37.447Z,66.27
2018-04-11T05:29:46.272Z,66.36
2018-04-11T05:30:55.554Z,66.65
2018-04-11T05:32:04.389Z,66.27
2018-04-11T05:33:13.231Z,66.27
2018-04-11T05:34:22.338Z,66.08
2018-04-11T05:35:31.168Z,65.89
2018-04-11T05:36:40.425Z,65.73
2018-04-11T05:37:49.259Z,66.2
2018-04-11T05:38:58.096Z,66.2
2018-04-11T05:40:06.925Z,65.7
2018-04-11T05:41:15.759Z,66.02
2018-04-11T05:42:24.595Z,66.02
2018-04-11T05:43:33.973Z,65.83
2018-04-11T05:44:42.803Z,65.54
2018-04-11T05:45:51.637Z,65.54
2018-04-11T05:47:00.741Z,65.54
2018-04-11T05:48:09.571Z,65.73
2018-04-11T05:49:18.406Z,66.02
2018-04-11T05:50:27.528Z,65.92
2018-04-11T05:51:36.362Z,66.3
2018-04-11T05:52:45.196Z,65.35
2018-04-11T05:53:54.029Z,65.54
2018-04-11T05:55:02.901Z,65.35
2018-04-11T05:56:12.086Z,65.54
2018-04-11T05:57:21.196Z,65.35
2018-04-11T05:58:30.032Z,65.73
2018-04-11T05:59:38.863Z,65.45
2018-04-11T06:00:47.703Z,66.02
2018-04-11T06:01:56.886Z,65.83
2018-04-11T06:03:06.004Z,66.11
2018-04-11T06:04:15.112Z,66.11
2018-04-11T06:05:23.943Z,65.92
2018-04-11T06:06:32.777Z,65.54
2018-04-11T06:07:41.935Z,65.25
2018-04-11T06:08:50.770Z,65.06
2018-04-11T06:09:59.875Z,65.06
2018-04-11T06:11:08.986Z,65.35
2018-04-11T06:12:17.818Z,65.64
2018-04-11T06:13:26.699Z,65.45
2018-04-11T06:14:35.806Z,65.64
2018-04-11T06:15:44.914Z,65.35
2018-04-11T06:16:54.031Z,65.16
2018-04-11T06:18:03.424Z,65.35
2018-04-11T06:19:12.836Z,64.81
2018-04-11T06:20:21.677Z,64.9
2018-04-11T06:21:30.499Z,64.81
2018-04-11T06:22:39.336Z,65.29
2018-04-11T06:23:48.170Z,64.34
2018-04-11T06:24:57.184Z,64.34
2018-04-11T06:26:06.300Z,64.34
2018-04-11T06:27:15.131Z,64.34
2018-04-11T06:28:23.966Z,64.24
2018-04-11T06:29:33.356Z,64.9
2018-04-11T06:30:42.391Z,65.1
2018-04-11T06:31:51.501Z,64.62
2018-04-11T06:33:00.608Z,64.43
2018-04-11T06:34:09.441Z,64.81
2018-04-11T06:35:18.276Z,64.53
2018-04-11T06:36:27.513Z,64.9
2018-04-11T06:37:36.347Z,64.62
2018-04-11T06:38:45.453Z,64.24
2018-04-11T06:39:54.288Z,65
2018-04-11T06:41:03.396Z,64.53
2018-04-11T06:42:12.479Z,64.53
2018-04-11T06:43:21.311Z,65.1
2018-04-11T06:44:30.150Z,65.1
2018-04-11T06:45:39.255Z,64.62
2018-04-11T06:46:48.093Z,64.72
2018-04-11T06:47:57.253Z,64.81
2018-04-11T06:49:06.360Z,65
2018-04-11T06:50:15.194Z,64.9
2018-04-11T06:51:24.024Z,64.34
2018-04-11T06:52:32.862Z,65.1
2018-04-11T06:53:41.693Z,64.43
2018-04-11T06:54:50.530Z,64.24
2018-04-11T06:55:59.645Z,65.1
2018-04-11T06:57:08.749Z,64.9
2018-04-11T06:58:17.594Z,64.43
2018-04-11T06:59:27.435Z,65
2018-04-11T07:00:36.268Z,64.43
2018-04-11T07:01:45.125Z,64.43
2018-04-11T07:02:54.494Z,64.37
2018-04-11T07:04:03.601Z,64.18
2018-04-11T07:05:12.635Z,64.47
2018-04-11T07:06:21.469Z,64.43
2018-04-11T07:07:30.303Z,64.43
2018-04-11T07:08:39.134Z,64.72
2018-04-11T07:09:47.968Z,65
2018-04-11T07:10:56.800Z,64.62
2018-04-11T07:12:05.636Z,64.62
2018-04-11T07:13:14.474Z,64.81
2018-04-11T07:14:23.576Z,64.43
2018-04-11T07:15:32.407Z,65.29
2018-04-11T07:16:41.644Z,65.19
2018-04-11T07:17:50.757Z,64.72
2018-04-11T07:18:59.588Z,64.94
2018-04-11T07:20:08.978Z,64.47
2018-04-11T07:21:17.810Z,64.75
2018-04-11T07:22:26.968Z,64.28
2018-04-11T07:23:35.799Z,65.42
2018-04-11T07:24:44.914Z,64.81
2018-04-11T07:25:53.758Z,65.13
2018-04-11T07:27:02.884Z,64.24
2018-04-11T07:28:12.594Z,64.75
2018-04-11T07:29:21.428Z,64.24
2018-04-11T07:30:30.265Z,64.37
2018-04-11T07:31:39.099Z,64.75
2018-04-11T07:32:47.933Z,64.37
2018-04-11T07:33:57.089Z,64.47
2018-04-11T07:35:05.924Z,64.56
2018-04-11T07:36:14.763Z,65.32
2018-04-11T07:37:23.879Z,65.13
2018-04-11T07:38:32.989Z,65.23
2018-04-11T07:39:42.123Z,65.32
2018-04-11T07:40:51.516Z,65.23
2018-04-11T07:42:00.351Z,65.03
2018-04-11T07:43:09.184Z,65.13
2018-04-11T07:44:18.021Z,64.9
2018-04-11T07:45:26.955Z,65.32
2018-04-11T07:46:36.338Z,65.32
2018-04-11T07:47:45.172Z,64.65
2018-04-11T07:48:54.006Z,65.03
2018-04-11T07:50:02.839Z,64.37
2018-04-11T07:51:11.977Z,65.03
2018-04-11T07:52:20.812Z,64.56
2018-04-11T07:53:29.922Z,64.18
2018-04-11T07:54:38.760Z,64.37
2018-04-11T07:55:48.157Z,64.28
2018-04-11T07:56:57.193Z,64.37
2018-04-11T07:58:06.029Z,64.28
2018-04-11T07:59:15.140Z,63.8
2018-04-11T08:00:24.252Z,63.7
2018-04-11T08:01:33.368Z,64.08
2018-04-11T08:02:42.301Z,64.75
2018-04-11T08:03:51.419Z,64.18
2018-04-11T08:05:00.529Z,64.56
2018-04-11T08:06:09.372Z,63.99
2018-04-11T08:07:18.207Z,64.08
2018-04-11T08:08:27.055Z,63.83
2018-04-11T08:09:36.435Z,63.83
2018-04-11T08:10:46.107Z,63.73
2018-04-11T08:11:55.212Z,63.92
2018-04-11T08:13:04.325Z,64.21
2018-04-11T08:14:13.588Z,63.73
2018-04-11T08:15:22.423Z,64.12
2018-04-11T08:16:32.103Z,63.73
2018-04-11T08:17:40.942Z,63.64
2018-04-11T08:18:49.777Z,64.12
2018-04-11T08:19:58.982Z,63.35
2018-04-11T08:21:07.816Z,63.73
2018-04-11T08:22:17.201Z,63.73
2018-04-11T08:23:26.038Z,63.45
2018-04-11T08:24:34.875Z,63.45
2018-04-11T08:25:44.083Z,63.48
2018-04-11T08:26:52.925Z,63.48
2018-04-11T08:28:01.748Z,63.39
2018-04-11T08:29:10.582Z,63.48
2018-04-11T08:30:19.418Z,63.57
2018-04-11T08:31:28.903Z,63.76
2018-04-11T08:32:38.343Z,64.05
2018-04-11T08:33:47.182Z,63.86
2018-04-11T08:34:56.291Z,64.24
2018-04-11T08:36:05.685Z,64.62
2018-04-11T08:37:14.522Z,64.24
2018-04-11T08:38:23.357Z,63.96
2018-04-11T08:39:32.193Z,63.67
2018-04-11T08:40:41.028Z,63.76
2018-04-11T08:41:49.914Z,64.05
2018-04-11T08:42:58.801Z,64.15
2018-04-11T08:44:07.639Z,64.15
2018-04-11T08:45:16.842Z,64.15
2018-04-11T08:46:25.945Z,63.96
2018-04-11T08:47:34.783Z,64.15
2018-04-11T08:48:43.718Z,64.05
2018-04-11T08:49:52.832Z,63.96
2018-04-11T08:51:01.666Z,63.86
2018-04-11T08:52:10.502Z,64.34
2018-04-11T08:53:19.337Z,64.05
2018-04-11T08:54:28.273Z,64.18
2018-04-11T08:55:37.106Z,64.34
2018-04-11T08:56:45.939Z,64.05
2018-04-11T08:57:54.771Z,64.18
2018-04-11T08:59:03.611Z,64.05
2018-04-11T09:00:12.446Z,63.89
2018-04-11T09:01:21.280Z,64.28
2018-04-11T09:02:30.391Z,64.47
2018-04-11T09:03:39.504Z,64.43
2018-04-11T09:04:48.344Z,64.72
2018-04-11T09:05:57.327Z,64.47
2018-04-11T09:07:06.169Z,64.09
2018-04-11T09:08:14.995Z,64.56
2018-04-11T09:09:23.831Z,64.65
2018-04-11T09:10:32.941Z,64.75
2018-04-11T09:11:41.874Z,64.65
2018-04-11T09:12:50.710Z,64.65
2018-04-11T09:13:59.542Z,64.75
2018-04-11T09:15:08.378Z,64.94
2018-04-11T09:16:17.215Z,65.33
2018-04-11T09:17:26.152Z,65.13
2018-04-11T09:18:34.989Z,65.42
2018-04-11T09:19:43.825Z,65.61
2018-04-11T09:20:52.706Z,65.33
2018-04-11T09:22:01.869Z,65.13
2018-04-11T09:23:10.807Z,65.52
2018-04-11T09:24:19.645Z,65.13
2018-04-11T09:25:28.755Z,65.13
2018-04-11T09:26:37.592Z,64.94
2018-04-11T09:27:46.426Z,65.04
2018-04-11T09:28:55.362Z,64.94
2018-04-11T09:30:04.199Z,64.94
2018-04-11T09:31:13.044Z,65.23
2018-04-11T09:32:21.873Z,65.13
2018-04-11T09:33:30.711Z,65.33
2018-04-11T09:34:40.123Z,65.04
2018-04-11T09:35:49.231Z,65.13
2018-04-11T09:36:58.070Z,64.56
2018-04-11T09:38:06.909Z,65.13
2018-04-11T09:39:15.744Z,65.04
2018-04-11T09:40:24.981Z,64.88
2018-04-11T09:41:33.817Z,65.07
2018-04-11T09:42:42.929Z,65.07
2018-04-11T09:43:51.767Z,65.17
2018-04-11T09:45:01.151Z,65.07
2018-04-11T09:46:10.089Z,64.97
2018-04-11T09:47:19.195Z,65.07
2018-04-11T09:48:28.035Z,65.36
2018-04-11T09:49:37.147Z,65.17
2018-04-11T09:50:45.984Z,64.97
2018-04-11T09:51:55.189Z,65.07
2018-04-11T09:53:04.237Z,65.07
2018-04-11T09:54:13.628Z,65.36
2018-04-11T09:55:22.465Z,65.45
2018-04-11T09:56:31.581Z,65.45
2018-04-11T09:57:40.465Z,65.17
2018-04-11T09:58:49.574Z,65.17
2018-04-11T09:59:58.409Z,65.45
2018-04-11T10:01:07.248Z,64.97
2018-04-11T10:02:16.364Z,65.36
2018-04-11T10:03:25.400Z,65.45
2018-04-11T10:04:34.235Z,65.17
2018-04-11T10:05:43.070Z,65.26
2018-04-11T10:06:51.910Z,65.26
2018-04-11T10:08:01.429Z,65.64
2018-04-11T10:09:10.312Z,65.83
2018-04-11T10:10:19.148Z,65.45
2018-04-11T10:11:27.985Z,65.74
2018-04-11T10:12:37.377Z,65.45
2018-04-11T10:13:46.213Z,65.83
2018-04-11T10:14:55.300Z,65.74
2018-04-11T10:16:04.135Z,66.22
2018-04-11T10:17:12.971Z,65.87
2018-04-11T10:18:21.809Z,66.15
2018-04-11T10:19:30.917Z,66.31
2018-04-11T10:20:40.180Z,66.78
2018-04-11T10:21:49.016Z,67.07
2018-04-11T10:22:57.852Z,66.6
2018-04-11T10:24:07.065Z,66.82
2018-04-11T10:25:15.906Z,66.53
2018-04-11T10:26:25.143Z,66.25
2018-04-11T10:27:33.977Z,66.35
2018-04-11T10:28:43.091Z,66.15
2018-04-11T10:29:52.199Z,66.72
2018-04-11T10:31:01.046Z,66.15
2018-04-11T10:32:10.035Z,66.15
2018-04-11T10:33:18.872Z,66.15
2018-04-11T10:34:27.712Z,66.63
2018-04-11T10:35:36.546Z,66.76
2018-04-11T10:36:45.382Z,66.85
2018-04-11T10:37:54.367Z,67.24
2018-04-11T10:39:03.208Z,66.56
2018-04-11T10:40:12.593Z,66.85
2018-04-11T10:41:21.431Z,66.66
2018-04-11T10:42:30.543Z,67.05
2018-04-11T10:43:39.478Z,66.95
2018-04-11T10:44:48.319Z,67.33
2018-04-11T10:45:57.153Z,67.24
2018-04-11T10:47:05.997Z,67.14
2018-04-11T10:48:14.827Z,67.14
2018-04-11T10:49:23.764Z,67.05
2018-04-11T10:50:32.604Z,67.14
2018-04-11T10:51:41.993Z,66.99
2018-04-11T10:52:50.863Z,67.24
2018-04-11T10:53:59.947Z,67.14
2018-04-11T10:55:08.985Z,67.52
2018-04-11T10:56:17.824Z,67.46
2018-04-11T10:57:26.657Z,67.81
2018-04-11T10:58:35.500Z,68.19
2018-04-11T10:59:44.635Z,67.81
2018-04-11T11:00:53.587Z,68.29
2018-04-11T11:02:02.660Z,68.23
2018-04-11T11:03:11.517Z,68.23
2018-04-11T11:04:20.354Z,68.51
2018-04-11T11:05:29.196Z,68.32
2018-04-11T11:06:38.028Z,68.13
2018-04-11T11:07:47.080Z,68.04
2018-04-11T11:08:55.919Z,68.32
2018-04-11T11:10:04.812Z,69.02
2018-04-11T11:11:13.650Z,69.02
2018-04-11T11:12:22.688Z,69.12
2018-04-11T11:13:31.807Z,69.6
2018-04-11T11:14:40.647Z,70.46
2018-04-11T11:15:49.517Z,72.37
2018-04-11T11:16:58.396Z,74.57
2018-04-11T11:18:07.744Z,75.34
2018-04-11T11:19:16.584Z,76.29
2018-04-11T11:20:25.470Z,76.96
2018-04-11T11:21:34.337Z,77.28
2018-04-11T11:22:43.197Z,78.05
2018-04-11T11:23:52.341Z,78.81
2018-04-11T11:25:01.178Z,79.49
2018-04-11T11:26:10.018Z,79.77
2018-04-11T11:27:19.181Z,80.73
2018-04-11T11:28:28.049Z,81.3
2018-04-11T11:29:36.960Z,81.88
2018-04-11T11:30:46.076Z,82.54
2018-04-11T11:31:55.192Z,82.87
2018-04-11T11:33:04.081Z,82.78
2018-04-11T11:34:12.937Z,83.54
2018-04-11T11:35:21.927Z,84.12
2018-04-11T11:36:30.766Z,84.31
2018-04-11T11:37:39.601Z,83.93
2018-04-11T11:38:48.455Z,84.69
2018-04-11T11:39:57.304Z,84.69
2018-04-11T11:41:07.031Z,85.17
2018-04-11T11:42:15.881Z,85.46
2018-04-11T11:43:24.733Z,85.75
2018-04-11T11:44:33.624Z,85.98
2018-04-11T11:45:42.771Z,86.27
2018-04-11T11:46:51.979Z,86.74
2018-04-11T11:48:00.866Z,86.94
2018-04-11T11:49:09.716Z,87.7
2018-04-11T11:50:18.579Z,87.41
2018-04-11T11:51:27.416Z,87.7
2018-04-11T11:52:36.453Z,87.9
2018-04-11T11:53:45.573Z,88.28
2018-04-11T11:54:54.410Z,88.56
2018-04-11T11:56:03.815Z,88.85
2018-04-11T11:57:13.219Z,88.7
2018-04-11T11:58:22.401Z,88.66
2018-04-11T11:59:31.547Z,89.23
2018-04-11T12:00:40.392Z,89.66
2018-04-11T12:01:49.779Z,89.28
2018-04-11T12:02:58.894Z,89.47
2018-04-11T12:04:08.036Z,89.37
2018-04-11T12:05:17.155Z,89.57
2018-04-11T12:06:25.993Z,89.28
2018-04-11T12:07:34.832Z,88.94
2018-04-11T12:08:43.672Z,89.42
2018-04-11T12:09:52.627Z,90.47
2018-04-11T12:11:01.458Z,89.04
2018-04-11T12:12:10.578Z,89.51
2018-04-11T12:13:19.417Z,89.9
2018-04-11T12:14:28.257Z,89.23
2018-04-11T12:15:37.307Z,89.42
2018-04-11T12:16:46.410Z,89.47
2018-04-11T12:17:55.253Z,89.47
2018-04-11T12:19:04.094Z,89.65
2018-04-11T12:20:12.938Z,90.14
2018-04-11T12:21:21.928Z,89.08
2018-04-11T12:22:30.771Z,89.47
2018-04-11T12:23:39.617Z,89.27
2018-04-11T12:24:48.466Z,89.12
2018-04-11T12:25:57.308Z,88.84
2018-04-11T12:27:06.300Z,89.32
2018-04-11T12:28:15.424Z,89.12
2018-04-11T12:29:24.268Z,88.93
2018-04-11T12:30:33.697Z,89.12
2018-04-11T12:31:42.821Z,88.98
2018-04-11T12:32:51.666Z,88.4
2018-04-11T12:34:00.516Z,88.69
2018-04-11T12:35:09.358Z,88.93
2018-04-11T12:36:18.480Z,89.32
2018-04-11T12:37:27.353Z,89.89
2018-04-11T12:38:36.623Z,90.18
2018-04-11T12:39:45.466Z,89.22
2018-04-11T12:40:54.309Z,89.22
2018-04-11T12:42:03.701Z,88.88
2018-04-11T12:43:12.552Z,88.4
2018-04-11T12:44:21.671Z,88.11
2018-04-11T12:45:30.794Z,88.4
2018-04-11T12:46:39.656Z,88.02
2018-04-11T12:47:48.773Z,87.68
2018-04-11T12:48:57.615Z,87.87
2018-04-11T12:50:06.661Z,87.96
2018-04-11T12:51:15.506Z,87.29
2018-04-11T12:52:24.355Z,87.68
2018-04-11T12:53:33.472Z,88.06
2018-04-11T12:54:42.591Z,88.02
2018-04-11T12:55:51.710Z,87.01
2018-04-11T12:57:00.551Z,88.06
2018-04-11T12:58:09.394Z,87.49
2018-04-11T12:59:18.240Z,87.01
2018-04-11T13:00:27.082Z,87.1
2018-04-11T13:01:36.349Z,86.62
2018-04-11T13:02:45.190Z,86.52
2018-04-11T13:03:54.036Z,86.52
2018-04-11T13:05:02.880Z,85.89
2018-04-11T13:06:12.002Z,85.89
2018-04-11T13:07:21.275Z,86.57
2018-04-11T13:08:30.414Z,86.57
2018-04-11T13:09:39.544Z,85.71
2018-04-11T13:10:48.388Z,85.8
2018-04-11T13:11:57.238Z,84.98
2018-04-11T13:13:06.511Z,85.41
2018-04-11T13:14:15.628Z,84.59
2018-04-11T13:15:24.475Z,84.55
2018-04-11T13:16:33.600Z,84.4
2018-04-11T13:17:42.725Z,84.3
2018-04-11T13:18:51.622Z,83.83
2018-04-11T13:20:00.471Z,84.59
2018-04-11T13:21:09.321Z,83.63
2018-04-11T13:22:18.166Z,83.34
2018-04-11T13:23:27.111Z,83.19
2018-04-11T13:24:36.155Z,84.01
2018-04-11T13:25:45.348Z,83.39
2018-04-11T13:26:54.802Z,81.94
2018-04-11T13:28:03.929Z,82.17
2018-04-11T13:29:12.784Z,82.37
2018-04-11T13:30:22.305Z,81.7
2018-04-11T13:31:31.150Z,82.85
2018-04-11T13:32:39.995Z,80.83
2018-04-11T13:33:48.841Z,81.21
2018-04-11T13:34:57.687Z,81.02
2018-04-11T13:36:07.280Z,81.02
2018-04-11T13:37:16.127Z,80.73
2018-04-11T13:38:24.971Z,81.02
2018-04-11T13:39:34.092Z,80.15
2018-04-11T13:40:42.942Z,79.9
2018-04-11T13:41:52.043Z,80.1
2018-04-11T13:43:00.885Z,80.25
2018-04-11T13:44:09.731Z,79.77
2018-04-11T13:45:18.847Z,79.23
2018-04-11T13:46:28.250Z,79.33
2018-04-11T13:47:37.096Z,78.27
2018-04-11T13:48:45.946Z,77.83
2018-04-11T13:49:54.795Z,77.59
2018-04-11T13:51:04.198Z,77.83
2018-04-11T13:52:13.046Z,77.53
2018-04-11T13:53:22.049Z,76.96
2018-04-11T13:54:31.173Z,76.38
2018-04-11T13:55:40.301Z,75.99
2018-04-11T13:56:49.427Z,75.84
2018-04-11T13:57:58.549Z,75.55
2018-04-11T13:59:07.450Z,75.93
2018-04-11T14:00:16.298Z,75.26
2018-04-11T14:01:25.143Z,74.78
2018-04-11T14:02:34.300Z,74.3
2018-04-11T14:03:43.392Z,75.1
2018-04-11T14:04:52.243Z,74.05
2018-04-11T14:06:01.093Z,73.95
2018-04-11T14:07:09.939Z,72.79
2018-04-11T14:08:18.834Z,71.96
2018-04-11T14:09:28.299Z,72.06
2018-04-11T14:10:37.153Z,71.77
2018-04-11T14:11:46.002Z,70.7
2018-04-11T14:12:55.128Z,71.38
2018-04-11T14:14:03.983Z,71.67
2018-04-11T14:15:12.825Z,70.61
2018-04-11T14:16:21.679Z,70.51
2018-04-11T14:17:30.807Z,70.13
2018-04-11T14:18:39.657Z,69.45
2018-04-11T14:19:48.560Z,69.45
2018-04-11T14:20:57.366Z,69.35
2018-04-11T14:22:06.493Z,69.74
2018-04-11T14:23:15.342Z,68.87
2018-04-11T14:24:24.192Z,69.84
2018-04-11T14:25:33.043Z,69.8
2018-04-11T14:26:42.174Z,69.61
2018-04-11T14:27:51.024Z,69.51
2018-04-11T14:28:59.873Z,70.19
2018-04-11T14:30:08.875Z,69.32
2018-04-11T14:31:17.726Z,68.59
2018-04-11T14:32:26.577Z,68.45
2018-04-11T14:33:35.977Z,68.84
2018-04-11T14:34:44.829Z,69.42
2018-04-11T14:35:53.730Z,69.61
2018-04-11T14:37:02.641Z,69.42
2018-04-11T14:38:11.431Z,69.03
2018-04-11T14:39:20.285Z,68.55
2018-04-11T14:40:29.137Z,69.03
2018-04-11T14:41:38.088Z,68.65
2018-04-11T14:42:46.939Z,68.16
2018-04-11T14:43:56.064Z,67.97
2018-04-11T14:45:04.915Z,68.16
2018-04-11T14:46:14.039Z,67.91
2018-04-11T14:47:23.161Z,67.43
2018-04-11T14:48:32.016Z,67.62
2018-04-11T14:49:40.864Z,67.88
2018-04-11T14:50:49.715Z,67.33
2018-04-11T14:51:58.566Z,67.14